createdAt,value
2019-04-07T00:00:15.444Z,2.80
2019-04-07T00:02:47.567Z,2.83
2019-04-07T00:05:19.551Z,2.80
2019-04-07T00:07:52.084Z,2.80
2019-04-07T00:10:23.709Z,2.50
2019-04-07T00:12:55.201Z,2.50
2019-04-07T00:15:26.488Z,2.90
2019-04-07T00:17:58.344Z,2.55
2019-04-07T00:23:00.991Z,2.85
2019-04-07T00:25:33.059Z,3.20
2019-04-07T00:28:04.506Z,2.65
2019-04-07T00:30:36.532Z,2.70
2019-04-07T00:33:08.535Z,2.52
2019-04-07T00:35:39.727Z,2.95
2019-04-07T00:38:11.473Z,2.92
2019-04-07T00:40:43.789Z,3.00
2019-04-07T00:43:15.373Z,2.70
2019-04-07T00:45:47.023Z,2.92
2019-04-07T00:50:49.372Z,2.40
2019-04-07T00:55:54.204Z,2.33
2019-04-07T00:58:26.931Z,2.83
2019-04-07T01:03:29.134Z,2.85
2019-04-07T01:06:01.193Z,2.92
2019-04-07T01:08:32.659Z,2.95
2019-04-07T01:11:04.652Z,3.37
2019-04-07T01:13:37.341Z,3.00
2019-04-07T01:16:09.795Z,2.80
2019-04-07T01:18:41.471Z,3.08
2019-04-07T01:21:13.823Z,3.12
2019-04-07T01:23:46.830Z,2.90
2019-04-07T01:28:48.684Z,2.90
2019-04-07T01:31:22.565Z,3.02
2019-04-07T01:33:54.457Z,3.83
2019-04-07T01:36:26.529Z,4.03
2019-04-07T01:38:58.713Z,3.92
2019-04-07T01:41:47.246Z,4.35
2019-04-07T01:44:27.648Z,4.22
2019-04-07T01:47:15.083Z,4.40
2019-04-07T01:49:52.394Z,4.80
2019-04-07T01:52:45.863Z,4.67
2019-04-07T01:55:36.717Z,4.60
2019-04-07T01:58:20.040Z,4.85
2019-04-07T02:01:10.833Z,5.20
2019-04-07T02:03:51.137Z,4.50
2019-04-07T02:06:47.760Z,4.80
2019-04-07T02:09:25.044Z,4.65
2019-04-07T02:12:14.739Z,4.90
2019-04-07T02:15:17.411Z,5.20
2019-04-07T02:18:08.014Z,5.75
2019-04-07T02:21:08.498Z,5.47
2019-04-07T02:24:06.416Z,5.47
2019-04-07T02:27:02.746Z,5.97
2019-04-07T02:29:52.149Z,5.90
2019-04-07T02:32:52.538Z,5.90
2019-04-07T02:35:41.965Z,6.03
2019-04-07T02:38:28.116Z,5.90
2019-04-07T02:41:17.836Z,5.90
2019-04-07T02:44:23.917Z,6.12
2019-04-07T02:47:26.311Z,6.92
2019-04-07T02:53:04.054Z,6.33
2019-04-07T02:55:45.552Z,6.35
2019-04-07T02:58:31.299Z,6.53
2019-04-07T03:01:26.142Z,6.22
2019-04-07T03:04:07.498Z,6.70
2019-04-07T03:07:04.918Z,6.23
2019-04-07T03:09:49.153Z,6.90
2019-04-07T03:12:37.288Z,6.22
2019-04-07T03:15:34.321Z,6.58
2019-04-07T03:18:42.795Z,6.30
2019-04-07T03:21:38.862Z,5.87
2019-04-07T03:24:41.208Z,6.20
2019-04-07T03:27:36.707Z,5.55
2019-04-07T03:30:27.083Z,5.53
2019-04-07T03:33:09.967Z,5.58
2019-04-07T03:36:12.824Z,5.28
2019-04-07T03:38:55.760Z,5.60
2019-04-07T03:41:42.315Z,5.50
2019-04-07T03:44:41.601Z,6.08
2019-04-07T03:47:35.498Z,5.83
2019-04-07T03:50:18.620Z,5.87
2019-04-07T03:53:08.213Z,5.95
2019-04-07T03:55:49.455Z,5.40
2019-04-07T03:58:49.416Z,5.70
2019-04-07T04:01:39.579Z,5.75
2019-04-07T04:04:45.731Z,5.67
2019-04-07T04:07:30.727Z,5.20
2019-04-07T04:10:01.970Z,5.08
2019-04-07T04:12:56.320Z,5.20
2019-04-07T04:15:31.797Z,6.15
2019-04-07T04:18:03.417Z,5.92
2019-04-07T04:23:06.304Z,5.70
2019-04-07T04:25:38.512Z,6.08
2019-04-07T04:28:10.138Z,5.30
2019-04-07T04:30:41.993Z,5.05
2019-04-07T04:33:13.439Z,5.35
2019-04-07T04:35:44.664Z,5.17
2019-04-07T04:38:16.683Z,5.00
2019-04-07T04:40:48.055Z,4.65
2019-04-07T04:43:19.790Z,5.15
2019-04-07T04:48:25.962Z,5.20
2019-04-07T04:50:58.053Z,5.10
2019-04-07T04:53:30.705Z,5.30
2019-04-07T04:56:02.979Z,5.22
2019-04-07T04:58:34.885Z,5.05
2019-04-07T05:03:38.340Z,5.07
2019-04-07T05:06:10.304Z,5.22
2019-04-07T05:08:43.297Z,5.42
2019-04-07T05:11:14.704Z,4.75
2019-04-07T05:13:46.727Z,4.87
2019-04-07T05:16:18.729Z,4.80
2019-04-07T05:18:50.646Z,4.53
2019-04-07T05:21:21.827Z,4.53
2019-04-07T05:23:53.903Z,4.95
2019-04-07T05:26:25.600Z,4.92
2019-04-07T05:28:56.869Z,5.03
2019-04-07T05:31:28.335Z,4.80
2019-04-07T05:34:00.398Z,4.90
2019-04-07T05:36:32.497Z,5.33
2019-04-07T05:39:06.534Z,5.03
2019-04-07T05:41:38.570Z,4.85
2019-04-07T05:44:10.037Z,5.03
2019-04-07T05:46:42.527Z,5.50
2019-04-07T05:49:16.239Z,5.35
2019-04-07T05:51:47.216Z,5.80
2019-04-07T05:54:19.760Z,5.80
2019-04-07T05:56:52.553Z,5.58
2019-04-07T05:59:24.248Z,5.65
2019-04-07T06:01:59.847Z,5.62
2019-04-07T06:04:29.099Z,5.30
2019-04-07T06:07:01.212Z,5.90
2019-04-07T06:09:33.821Z,5.55
2019-04-07T06:12:08.515Z,6.42
2019-04-07T06:14:38.934Z,5.97
2019-04-07T06:17:10.816Z,5.20
2019-04-07T06:19:42.358Z,6.15
2019-04-07T06:22:17.455Z,6.05
2019-04-07T06:24:47.105Z,6.22
2019-04-07T06:29:50.119Z,6.65
2019-04-07T06:32:21.905Z,6.28
2019-04-07T06:37:27.787Z,6.80
2019-04-07T06:39:57.726Z,6.40
2019-04-07T06:42:33.197Z,6.03
2019-04-07T06:45:02.350Z,6.83
2019-04-07T06:47:46.004Z,6.78
2019-04-07T06:50:47.555Z,6.65
2019-04-07T06:53:20.171Z,6.65
2019-04-07T06:56:08.982Z,6.60
2019-04-07T06:59:17.640Z,7.22
2019-04-07T07:02:07.351Z,9.43
2019-04-07T07:04:49.750Z,7.87
2019-04-07T07:07:48.195Z,7.00
2019-04-07T07:10:40.135Z,6.92
2019-04-07T07:13:35.448Z,6.55
2019-04-07T07:16:31.794Z,6.47
2019-04-07T07:19:33.176Z,6.75
2019-04-07T07:22:16.558Z,7.17
2019-04-07T07:24:49.101Z,7.08
2019-04-07T07:27:20.814Z,7.25
2019-04-07T07:29:53.738Z,7.12
2019-04-07T07:32:25.940Z,6.75
2019-04-07T07:34:57.586Z,6.47
2019-04-07T07:37:29.012Z,7.30
2019-04-07T07:40:01.016Z,7.17
2019-04-07T07:42:32.981Z,7.30
2019-04-07T07:45:08.229Z,7.65
2019-04-07T07:47:38.385Z,7.25
2019-04-07T07:50:10.278Z,7.37
2019-04-07T07:52:43.264Z,7.42
2019-04-07T07:57:45.722Z,7.62
2019-04-07T08:00:17.264Z,7.40
2019-04-07T08:02:51.475Z,7.87
2019-04-07T08:05:22.732Z,7.30
2019-04-07T08:07:55.160Z,7.33
2019-04-07T08:10:27.613Z,7.75
2019-04-07T08:12:59.652Z,7.25
2019-04-07T08:15:33.223Z,7.40
2019-04-07T08:18:07.166Z,7.22
2019-04-07T08:20:38.449Z,7.17
2019-04-07T08:23:11.833Z,7.50
2019-04-07T08:25:43.745Z,7.53
2019-04-07T08:28:15.798Z,10.98
2019-04-07T08:30:49.061Z,35.70
2019-04-07T08:33:20.435Z,25.12
2019-04-07T08:35:54.859Z,14.75
2019-04-07T08:38:27.987Z,12.33
2019-04-07T08:40:59.483Z,13.35
2019-04-07T08:43:31.920Z,9.33
2019-04-07T08:46:05.053Z,8.70
2019-04-07T08:48:37.432Z,9.15
2019-04-07T08:53:43.567Z,9.58
2019-04-07T08:56:13.988Z,9.33
2019-04-07T08:58:45.986Z,8.38
2019-04-07T09:01:20.365Z,8.48
2019-04-07T09:03:51.896Z,8.90
2019-04-07T09:06:27.268Z,8.43
2019-04-07T09:08:57.376Z,9.10
2019-04-07T09:14:00.191Z,8.95
2019-04-07T09:16:52.839Z,8.43
2019-04-07T09:19:44.331Z,8.53
2019-04-07T09:22:30.741Z,8.35
2019-04-07T09:25:31.927Z,8.63
2019-04-07T09:28:23.739Z,9.60
2019-04-07T09:31:11.987Z,9.83
2019-04-07T09:33:58.554Z,9.35
2019-04-07T09:36:51.283Z,10.20
2019-04-07T09:39:34.014Z,10.82
2019-04-07T09:42:18.615Z,10.28
2019-04-07T09:45:12.746Z,9.85
2019-04-07T09:48:07.594Z,11.53
2019-04-07T09:50:55.180Z,10.95
2019-04-07T09:53:33.790Z,12.10
2019-04-07T09:56:32.870Z,12.58
2019-04-07T09:59:20.573Z,14.78
2019-04-07T10:02:14.678Z,12.73
2019-04-07T10:04:55.870Z,13.22
2019-04-07T10:07:45.207Z,13.98
2019-04-07T10:10:39.969Z,15.75
2019-04-07T10:13:34.068Z,15.05
2019-04-07T10:16:24.744Z,15.05
2019-04-07T10:19:24.403Z,14.68
2019-04-07T10:22:13.877Z,17.85
2019-04-07T10:24:58.476Z,18.50
2019-04-07T10:27:48.749Z,18.65
2019-04-07T10:30:41.452Z,19.37
2019-04-07T10:36:11.833Z,18.35
2019-04-07T10:39:02.043Z,19.32
2019-04-07T10:41:48.283Z,19.42
2019-04-07T10:44:44.530Z,18.98
2019-04-07T10:47:38.509Z,21.60
2019-04-07T10:50:27.223Z,20.80
2019-04-07T10:53:31.298Z,19.55
2019-04-07T10:56:30.877Z,22.13
2019-04-07T10:59:24.451Z,22.55
2019-04-07T11:02:23.912Z,24.57
2019-04-07T11:05:13.136Z,22.62
2019-04-07T11:08:02.512Z,23.32
2019-04-07T11:14:31.761Z,23.70
2019-04-07T11:17:22.545Z,24.85
2019-04-07T11:20:01.533Z,24.60
2019-04-07T11:22:47.947Z,24.90
2019-04-07T11:25:29.562Z,25.05
2019-04-07T11:28:23.019Z,24.30
2019-04-07T11:31:13.184Z,25.32
2019-04-07T11:34:16.000Z,25.23
2019-04-07T11:37:10.806Z,26.07
2019-04-07T11:40:04.814Z,25.90
2019-04-07T11:42:50.688Z,26.25
2019-04-07T11:45:39.037Z,26.27
2019-04-07T11:48:29.777Z,25.05
2019-04-07T11:51:26.612Z,26.73
2019-04-07T11:54:14.302Z,25.80
2019-04-07T11:57:07.451Z,24.92
2019-04-07T12:00:03.989Z,27.13
2019-04-07T12:02:51.837Z,24.80
2019-04-07T12:05:35.414Z,25.82
2019-04-07T12:08:25.120Z,25.65
2019-04-07T12:11:06.755Z,25.37
2019-04-07T12:13:57.184Z,26.52
2019-04-07T12:17:02.429Z,26.42
2019-04-07T12:19:54.523Z,26.90
2019-04-07T12:22:44.745Z,26.75
2019-04-07T12:25:37.317Z,26.90
2019-04-07T12:31:20.435Z,27.52
2019-04-07T12:34:12.197Z,27.75
2019-04-07T12:36:54.773Z,26.73
2019-04-07T12:39:47.282Z,26.25
2019-04-07T12:42:35.727Z,26.23
2019-04-07T12:45:30.000Z,27.98
2019-04-07T12:48:21.522Z,27.90
2019-04-07T12:51:19.911Z,27.10
2019-04-07T12:54:12.847Z,26.12
2019-04-07T12:57:15.533Z,25.82
2019-04-07T12:59:59.590Z,26.07
2019-04-07T13:02:47.501Z,25.95
2019-04-07T13:05:41.137Z,25.95
2019-04-07T13:08:34.984Z,25.05
2019-04-07T13:11:25.445Z,24.50
2019-04-07T13:14:10.130Z,105.05
2019-04-07T13:17:02.560Z,248.03
2019-04-07T13:19:49.980Z,217.60
2019-04-07T13:22:37.726Z,224.37
2019-04-07T13:25:25.119Z,154.85
2019-04-07T13:28:08.176Z,136.92
2019-04-07T13:30:56.778Z,132.45
2019-04-07T13:33:39.927Z,122.07
2019-04-07T13:36:33.317Z,96.12
2019-04-07T13:39:23.791Z,91.00
2019-04-07T13:42:18.137Z,82.35
2019-04-07T13:45:13.237Z,71.50
2019-04-07T13:48:06.187Z,58.73
2019-04-07T13:50:49.204Z,54.80
2019-04-07T13:53:38.316Z,49.55
2019-04-07T13:56:19.469Z,44.67
2019-04-07T13:59:10.149Z,43.00
2019-04-07T14:01:54.592Z,40.10
2019-04-07T14:04:56.182Z,41.90
2019-04-07T14:08:04.139Z,37.50
2019-04-07T14:10:55.063Z,35.80
2019-04-07T14:13:37.948Z,34.35
2019-04-07T14:16:33.422Z,30.82
2019-04-07T14:19:11.301Z,30.08
2019-04-07T14:22:04.297Z,27.75
2019-04-07T14:24:56.718Z,26.37
2019-04-07T14:27:38.411Z,26.12
2019-04-07T14:30:33.349Z,22.87
2019-04-07T14:33:17.888Z,22.25
2019-04-07T14:36:15.061Z,20.85
2019-04-07T14:39:05.885Z,21.00
2019-04-07T14:42:05.035Z,19.87
2019-04-07T14:44:47.785Z,19.80
2019-04-07T14:47:27.293Z,18.45
2019-04-07T14:50:25.136Z,18.67
2019-04-07T14:53:18.667Z,19.10
2019-04-07T14:56:15.448Z,17.45
2019-04-07T14:59:04.088Z,17.40
2019-04-07T15:02:00.467Z,16.75
2019-04-07T15:04:35.741Z,15.23
2019-04-07T15:07:26.380Z,15.68
2019-04-07T15:10:05.067Z,15.90
2019-04-07T15:12:44.176Z,15.68
2019-04-07T15:15:16.065Z,15.13
2019-04-07T15:20:17.812Z,15.13
2019-04-07T15:22:49.492Z,15.53
2019-04-07T15:25:22.626Z,14.60
2019-04-07T15:27:58.460Z,15.65
2019-04-07T15:30:28.576Z,15.18
2019-04-07T15:33:02.357Z,14.47
2019-04-07T15:35:34.121Z,14.85
2019-04-07T15:38:05.847Z,17.37
2019-04-07T15:40:37.433Z,17.23
2019-04-07T15:43:10.928Z,17.10
2019-04-07T15:45:44.410Z,16.62
2019-04-07T15:48:17.052Z,16.97
2019-04-07T15:50:49.089Z,16.90
2019-04-07T15:56:01.203Z,17.95
2019-04-07T15:58:26.770Z,16.93
2019-04-07T16:01:00.214Z,17.25
2019-04-07T16:03:33.112Z,17.07
2019-04-07T16:06:04.666Z,17.75
2019-04-07T16:08:36.220Z,17.95
2019-04-07T16:11:08.036Z,18.25
2019-04-07T16:16:11.326Z,16.32
2019-04-07T16:18:43.447Z,18.32
2019-04-07T16:21:18.036Z,17.62
2019-04-07T16:23:52.827Z,17.07
2019-04-07T16:26:22.499Z,17.20
2019-04-07T16:28:55.112Z,17.45
2019-04-07T16:31:27.170Z,17.02
2019-04-07T16:33:59.190Z,16.93
2019-04-07T16:36:30.938Z,16.37
2019-04-07T16:39:03.254Z,17.17
2019-04-07T16:41:35.294Z,16.02
2019-04-07T16:44:09.477Z,15.03
2019-04-07T16:46:41.183Z,16.55
2019-04-07T16:49:13.730Z,16.75
2019-04-07T16:51:47.295Z,16.27
2019-04-07T16:54:19.881Z,15.80
2019-04-07T16:56:55.175Z,15.70
2019-04-07T16:59:25.313Z,16.32
2019-04-07T17:01:57.006Z,15.20
2019-04-07T17:04:29.985Z,15.38
2019-04-07T17:07:04.429Z,15.13
2019-04-07T17:09:36.363Z,15.38
2019-04-07T17:12:10.954Z,16.02
2019-04-07T17:14:42.140Z,15.95
2019-04-07T17:17:16.841Z,14.87
2019-04-07T17:19:46.299Z,15.48
2019-04-07T17:22:18.121Z,15.25
2019-04-07T17:27:20.506Z,15.53
2019-04-07T17:29:55.312Z,15.28
2019-04-07T17:32:26.308Z,15.18
2019-04-07T17:34:58.251Z,15.32
2019-04-07T17:37:29.716Z,14.75
2019-04-07T17:40:13.149Z,14.55
2019-04-07T17:42:42.546Z,14.10
2019-04-07T17:45:37.515Z,15.63
2019-04-07T17:48:38.153Z,14.40
2019-04-07T17:51:23.968Z,14.80
2019-04-07T17:54:29.422Z,14.53
2019-04-07T17:57:20.529Z,14.75
2019-04-07T18:00:11.717Z,15.13
2019-04-07T18:03:06.312Z,14.87
2019-04-07T18:06:00.477Z,15.18
2019-04-07T18:08:45.326Z,15.05
2019-04-07T18:11:54.068Z,14.75
2019-04-07T18:14:33.119Z,14.78
2019-04-07T18:17:44.536Z,14.68
2019-04-07T18:20:32.773Z,14.65
2019-04-07T18:23:37.144Z,14.03
2019-04-07T18:26:31.798Z,15.10
2019-04-07T18:29:23.159Z,14.95
2019-04-07T18:32:14.443Z,14.03
2019-04-07T18:35:14.137Z,14.75
2019-04-07T18:38:04.333Z,14.40
2019-04-07T18:40:46.370Z,14.30
2019-04-07T18:46:28.903Z,14.55
2019-04-07T18:49:18.053Z,14.50
2019-04-07T18:52:08.684Z,14.15
2019-04-07T18:55:00.107Z,15.93
2019-04-07T18:57:48.888Z,15.95
2019-04-07T19:00:32.510Z,14.70
2019-04-07T19:03:16.383Z,14.47
2019-04-07T19:06:06.736Z,15.13
2019-04-07T19:08:58.314Z,15.05
2019-04-07T19:11:35.283Z,15.70
2019-04-07T19:14:39.435Z,14.75
2019-04-07T19:17:25.535Z,15.45
2019-04-07T19:20:19.364Z,14.95
2019-04-07T19:23:12.797Z,14.45
2019-04-07T19:26:01.557Z,14.28
2019-04-07T19:28:51.946Z,14.78
2019-04-07T19:31:50.444Z,14.75
2019-04-07T19:34:49.235Z,14.33
2019-04-07T19:37:35.282Z,14.75
2019-04-07T19:40:35.992Z,14.45
2019-04-07T19:43:29.245Z,15.15
2019-04-07T19:46:06.969Z,14.98
2019-04-07T19:48:50.796Z,14.18
2019-04-07T19:52:02.322Z,13.62
2019-04-07T19:54:57.885Z,14.80
2019-04-07T19:58:04.222Z,13.85
2019-04-07T20:01:10.574Z,12.93
2019-04-07T20:03:53.968Z,13.72
2019-04-07T20:06:44.014Z,14.30
2019-04-07T20:09:27.856Z,15.88
2019-04-07T20:12:11.623Z,16.50
2019-04-07T20:15:14.787Z,15.72
2019-04-07T20:18:18.712Z,17.00
2019-04-07T20:21:18.980Z,16.57
2019-04-07T20:24:01.397Z,16.05
2019-04-07T20:26:56.682Z,16.02
2019-04-07T20:29:41.577Z,16.97
2019-04-07T20:32:29.509Z,14.75
2019-04-07T20:35:18.693Z,15.85
2019-04-07T20:38:15.877Z,15.83
2019-04-07T20:40:52.569Z,15.25
2019-04-07T20:43:30.657Z,14.93
2019-04-07T20:46:27.515Z,15.18
2019-04-07T20:49:34.356Z,14.90
2019-04-07T20:52:30.902Z,14.90
2019-04-07T20:55:24.094Z,14.55
2019-04-07T20:58:16.252Z,14.80
2019-04-07T21:01:07.204Z,13.90
2019-04-07T21:03:59.961Z,13.45
2019-04-07T21:06:57.969Z,13.40
2019-04-07T21:09:46.789Z,13.85
2019-04-07T21:12:45.413Z,13.70
2019-04-07T21:15:41.188Z,13.28
2019-04-07T21:18:38.958Z,13.38
2019-04-07T21:21:35.293Z,13.53
2019-04-07T21:24:27.121Z,13.40
2019-04-07T21:27:06.095Z,14.25
2019-04-07T21:29:56.051Z,13.88
2019-04-07T21:32:38.724Z,12.80
2019-04-07T21:35:47.927Z,14.30
2019-04-07T21:38:42.076Z,13.50
2019-04-07T21:41:47.967Z,11.97
2019-04-07T21:44:51.304Z,12.63
2019-04-07T21:47:33.051Z,12.90
2019-04-07T21:50:23.593Z,12.18
2019-04-07T21:53:12.108Z,12.82
2019-04-07T21:56:01.684Z,12.23
2019-04-07T21:59:01.230Z,11.95
2019-04-07T22:01:43.269Z,11.85
2019-04-07T22:04:25.289Z,12.58
2019-04-07T22:07:13.235Z,11.43
2019-04-07T22:09:52.109Z,12.53
2019-04-07T22:12:28.045Z,11.97
2019-04-07T22:14:57.727Z,11.80
2019-04-07T22:17:32.599Z,11.85
2019-04-07T22:20:02.713Z,12.13
2019-04-07T22:22:34.060Z,12.33
2019-04-07T22:25:07.142Z,11.88
2019-04-07T22:27:39.380Z,12.70
2019-04-07T22:30:13.174Z,11.75
2019-04-07T22:32:44.827Z,12.18
2019-04-07T22:35:16.955Z,11.73
2019-04-07T22:37:49.991Z,11.33
2019-04-07T22:40:21.968Z,11.65
2019-04-07T22:45:27.773Z,10.90
2019-04-07T22:47:57.165Z,10.82
2019-04-07T22:50:28.612Z,10.58
2019-04-07T22:53:00.183Z,11.05
2019-04-07T22:55:34.268Z,11.50
2019-04-07T22:58:05.398Z,10.85
2019-04-07T23:00:38.218Z,11.05
2019-04-07T23:03:09.983Z,11.00
2019-04-07T23:05:41.606Z,11.08
2019-04-07T23:08:12.930Z,11.12
2019-04-07T23:10:44.549Z,11.05
2019-04-07T23:13:15.774Z,10.75
2019-04-07T23:15:47.739Z,11.30
2019-04-07T23:18:20.676Z,10.32
2019-04-07T23:20:52.405Z,10.18
2019-04-07T23:23:23.920Z,10.25
2019-04-07T23:25:56.106Z,10.05
2019-04-07T23:31:08.260Z,10.32
2019-04-07T23:33:39.828Z,11.18
2019-04-07T23:36:11.603Z,9.83
2019-04-07T23:38:43.898Z,10.53
2019-04-07T23:41:15.925Z,10.28
2019-04-07T23:43:47.139Z,10.53
2019-04-07T23:46:24.281Z,10.08
2019-04-07T23:48:52.238Z,11.03
2019-04-07T23:51:23.862Z,10.10
2019-04-07T23:54:14.526Z,10.35
2019-04-07T23:56:45.814Z,9.80
2019-04-07T23:59:17.126Z,9.83
